sensor_id;sensor_type;location;lat;lon;timestamp;P1;durP1;ratioP1;P2;durP2;ratioP2
1308;SDS011;647;48.840;9.314;2023-04-19T00:01:31;65.17;;;11.20;;
1308;SDS011;647;48.840;9.314;2023-04-19T00:03:58;66.43;;;10.33;;
1308;SDS011;647;48.840;9.314;2023-04-19T00:06:26;66.37;;;10.80;;
1308;SDS011;647;48.840;9.314;2023-04-19T00:08:56;64.53;;;10.27;;
1308;SDS011;647;48.840;9.314;2023-04-19T00:11:23;67.33;;;11.80;;
1308;SDS011;647;48.840;9.314;2023-04-19T00:13:50;67.57;;;11.23;;
1308;SDS011;647;48.840;9.314;2023-04-19T00:16:17;68.30;;;12.00;;
1308;SDS011;647;48.840;9.314;2023-04-19T00:18:44;67.67;;;11.73;;
1308;SDS011;647;48.840;9.314;2023-04-19T00:21:12;68.13;;;11.60;;
1308;SDS011;647;48.840;9.314;2023-04-19T00:23:39;68.10;;;11.70;;
1308;SDS011;647;48.840;9.314;2023-04-19T00:26:08;68.30;;;12.00;;
1308;SDS011;647;48.840;9.314;2023-04-19T00:28:35;68.60;;;12.97;;
1308;SDS011;647;48.840;9.314;2023-04-19T00:31:02;69.97;;;12.97;;
1308;SDS011;647;48.840;9.314;2023-04-19T00:33:29;68.13;;;12.40;;
1308;SDS011;647;48.840;9.314;2023-04-19T00:35:56;68.60;;;12.27;;
1308;SDS011;647;48.840;9.314;2023-04-19T00:38:24;74.80;;;12.33;;
1308;SDS011;647;48.840;9.314;2023-04-19T00:40:51;69.77;;;12.00;;
1308;SDS011;647;48.840;9.314;2023-04-19T00:43:19;67.70;;;12.13;;
1308;SDS011;647;48.840;9.314;2023-04-19T00:45:46;73.40;;;12.47;;
1308;SDS011;647;48.840;9.314;2023-04-19T00:48:13;69.30;;;13.00;;
1308;SDS011;647;48.840;9.314;2023-04-19T00:50:41;68.10;;;12.50;;
1308;SDS011;647;48.840;9.314;2023-04-19T00:53:09;68.10;;;11.53;;
1308;SDS011;647;48.840;9.314;2023-04-19T00:55:37;70.93;;;12.83;;
1308;SDS011;647;48.840;9.314;2023-04-19T00:58:04;70.13;;;12.23;;
1308;SDS011;647;48.840;9.314;2023-04-19T01:00:33;70.50;;;13.67;;
1308;SDS011;647;48.840;9.314;2023-04-19T01:03:00;69.77;;;12.93;;
1308;SDS011;647;48.840;9.314;2023-04-19T01:05:27;68.50;;;11.80;;
1308;SDS011;647;48.840;9.314;2023-04-19T01:07:54;70.90;;;12.70;;
1308;SDS011;647;48.840;9.314;2023-04-19T01:10:21;67.53;;;11.07;;
1308;SDS011;647;48.840;9.314;2023-04-19T01:12:49;71.00;;;13.13;;
1308;SDS011;647;48.840;9.314;2023-04-19T01:15:16;68.80;;;11.93;;
1308;SDS011;647;48.840;9.314;2023-04-19T01:17:44;71.67;;;12.50;;
1308;SDS011;647;48.840;9.314;2023-04-19T01:20:11;68.10;;;12.80;;
1308;SDS011;647;48.840;9.314;2023-04-19T01:22:40;69.03;;;13.10;;
1308;SDS011;647;48.840;9.314;2023-04-19T01:25:08;70.27;;;11.80;;
1308;SDS011;647;48.840;9.314;2023-04-19T01:27:35;70.30;;;11.97;;
1308;SDS011;647;48.840;9.314;2023-04-19T01:30:02;66.60;;;11.27;;
1308;SDS011;647;48.840;9.314;2023-04-19T01:32:30;66.97;;;11.43;;
1308;SDS011;647;48.840;9.314;2023-04-19T01:34:57;68.30;;;11.83;;
1308;SDS011;647;48.840;9.314;2023-04-19T01:37:24;67.90;;;11.97;;
1308;SDS011;647;48.840;9.314;2023-04-19T01:39:52;69.33;;;12.13;;
1308;SDS011;647;48.840;9.314;2023-04-19T01:42:20;71.30;;;13.63;;
1308;SDS011;647;48.840;9.314;2023-04-19T01:44:47;68.77;;;12.20;;
1308;SDS011;647;48.840;9.314;2023-04-19T01:47:14;68.90;;;11.67;;
1308;SDS011;647;48.840;9.314;2023-04-19T01:49:41;69.40;;;12.07;;
1308;SDS011;647;48.840;9.314;2023-04-19T01:52:08;70.00;;;12.77;;
1308;SDS011;647;48.840;9.314;2023-04-19T01:54:35;71.60;;;12.80;;
1308;SDS011;647;48.840;9.314;2023-04-19T01:57:03;70.23;;;13.23;;
1308;SDS011;647;48.840;9.314;2023-04-19T01:59:31;71.83;;;13.60;;
1308;SDS011;647;48.840;9.314;2023-04-19T02:01:58;69.37;;;14.23;;
1308;SDS011;647;48.840;9.314;2023-04-19T02:04:25;70.10;;;13.30;;
1308;SDS011;647;48.840;9.314;2023-04-19T02:06:52;69.40;;;13.10;;
1308;SDS011;647;48.840;9.314;2023-04-19T02:09:19;72.17;;;14.37;;
1308;SDS011;647;48.840;9.314;2023-04-19T02:11:46;70.60;;;13.67;;
1308;SDS011;647;48.840;9.314;2023-04-19T02:14:15;68.27;;;12.90;;
1308;SDS011;647;48.840;9.314;2023-04-19T02:16:42;68.67;;;13.30;;
1308;SDS011;647;48.840;9.314;2023-04-19T02:19:09;68.50;;;12.83;;
1308;SDS011;647;48.840;9.314;2023-04-19T02:21:36;71.90;;;13.37;;
1308;SDS011;647;48.840;9.314;2023-04-19T02:24:03;73.30;;;15.00;;
1308;SDS011;647;48.840;9.314;2023-04-19T02:26:30;72.10;;;14.50;;
1308;SDS011;647;48.840;9.314;2023-04-19T02:28:57;70.10;;;13.70;;
1308;SDS011;647;48.840;9.314;2023-04-19T02:31:26;72.20;;;13.47;;
1308;SDS011;647;48.840;9.314;2023-04-19T02:33:53;71.20;;;14.43;;
1308;SDS011;647;48.840;9.314;2023-04-19T02:36:20;70.10;;;13.97;;
1308;SDS011;647;48.840;9.314;2023-04-19T02:38:47;69.57;;;13.00;;
1308;SDS011;647;48.840;9.314;2023-04-19T02:41:14;71.53;;;13.97;;
1308;SDS011;647;48.840;9.314;2023-04-19T02:43:41;71.10;;;14.20;;
1308;SDS011;647;48.840;9.314;2023-04-19T02:46:08;69.47;;;13.03;;
1308;SDS011;647;48.840;9.314;2023-04-19T02:48:37;68.90;;;13.43;;
1308;SDS011;647;48.840;9.314;2023-04-19T02:51:04;71.30;;;14.03;;
1308;SDS011;647;48.840;9.314;2023-04-19T02:53:32;69.13;;;12.60;;
1308;SDS011;647;48.840;9.314;2023-04-19T02:55:59;73.37;;;13.60;;
1308;SDS011;647;48.840;9.314;2023-04-19T02:58:27;67.70;;;12.43;;
1308;SDS011;647;48.840;9.314;2023-04-19T03:00:54;70.53;;;12.60;;
1308;SDS011;647;48.840;9.314;2023-04-19T03:03:21;71.33;;;13.03;;
1308;SDS011;647;48.840;9.314;2023-04-19T03:05:49;69.13;;;12.97;;
1308;SDS011;647;48.840;9.314;2023-04-19T03:08:16;68.70;;;12.40;;
1308;SDS011;647;48.840;9.314;2023-04-19T03:10:43;69.27;;;14.37;;
1308;SDS011;647;48.840;9.314;2023-04-19T03:13:11;67.60;;;13.13;;
1308;SDS011;647;48.840;9.314;2023-04-19T03:15:38;69.23;;;12.67;;
1308;SDS011;647;48.840;9.314;2023-04-19T03:18:05;71.90;;;14.37;;
1308;SDS011;647;48.840;9.314;2023-04-19T03:20:32;71.17;;;13.97;;
1308;SDS011;647;48.840;9.314;2023-04-19T03:23:00;70.60;;;15.00;;
1308;SDS011;647;48.840;9.314;2023-04-19T03:25:27;72.30;;;15.60;;
1308;SDS011;647;48.840;9.314;2023-04-19T03:27:55;70.53;;;13.40;;
1308;SDS011;647;48.840;9.314;2023-04-19T03:30:22;72.80;;;15.10;;
1308;SDS011;647;48.840;9.314;2023-04-19T03:32:49;70.00;;;14.10;;
1308;SDS011;647;48.840;9.314;2023-04-19T03:35:17;70.70;;;14.00;;
1308;SDS011;647;48.840;9.314;2023-04-19T03:37:44;73.47;;;14.80;;
1308;SDS011;647;48.840;9.314;2023-04-19T03:40:13;70.70;;;14.00;;
1308;SDS011;647;48.840;9.314;2023-04-19T03:42:40;72.63;;;14.47;;
1308;SDS011;647;48.840;9.314;2023-04-19T03:45:07;72.37;;;15.33;;
1308;SDS011;647;48.840;9.314;2023-04-19T03:47:34;74.80;;;16.20;;
1308;SDS011;647;48.840;9.314;2023-04-19T03:50:02;73.17;;;14.63;;
1308;SDS011;647;48.840;9.314;2023-04-19T03:52:29;73.70;;;16.17;;
1308;SDS011;647;48.840;9.314;2023-04-19T03:54:56;73.20;;;14.80;;
1308;SDS011;647;48.840;9.314;2023-04-19T03:57:24;74.40;;;16.10;;
1308;SDS011;647;48.840;9.314;2023-04-19T03:59:52;78.17;;;17.10;;
1308;SDS011;647;48.840;9.314;2023-04-19T04:02:19;73.50;;;15.73;;
1308;SDS011;647;48.840;9.314;2023-04-19T04:04:46;72.97;;;16.20;;
1308;SDS011;647;48.840;9.314;2023-04-19T04:07:13;75.00;;;17.20;;
1308;SDS011;647;48.840;9.314;2023-04-19T04:09:40;74.20;;;16.17;;
1308;SDS011;647;48.840;9.314;2023-04-19T04:12:07;71.90;;;15.23;;
1308;SDS011;647;48.840;9.314;2023-04-19T04:14:36;77.10;;;16.50;;
1308;SDS011;647;48.840;9.314;2023-04-19T04:17:03;76.07;;;17.50;;
1308;SDS011;647;48.840;9.314;2023-04-19T04:19:30;81.00;;;17.10;;
1308;SDS011;647;48.840;9.314;2023-04-19T04:21:57;72.53;;;16.13;;
1308;SDS011;647;48.840;9.314;2023-04-19T04:24:24;74.90;;;16.80;;
1308;SDS011;647;48.840;9.314;2023-04-19T04:26:52;76.77;;;16.93;;
1308;SDS011;647;48.840;9.314;2023-04-19T04:29:19;76.17;;;16.07;;
1308;SDS011;647;48.840;9.314;2023-04-19T04:31:47;73.10;;;16.23;;
1308;SDS011;647;48.840;9.314;2023-04-19T04:34:14;77.63;;;16.13;;
1308;SDS011;647;48.840;9.314;2023-04-19T04:36:41;75.77;;;16.73;;
1308;SDS011;647;48.840;9.314;2023-04-19T04:39:09;73.30;;;16.93;;
1308;SDS011;647;48.840;9.314;2023-04-19T04:41:37;78.53;;;16.87;;
1308;SDS011;647;48.840;9.314;2023-04-19T04:44:06;76.20;;;17.57;;
1308;SDS011;647;48.840;9.314;2023-04-19T04:46:33;73.40;;;16.93;;
1308;SDS011;647;48.840;9.314;2023-04-19T04:49:02;75.90;;;16.50;;
1308;SDS011;647;48.840;9.314;2023-04-19T04:51:29;76.77;;;17.33;;
1308;SDS011;647;48.840;9.314;2023-04-19T04:53:56;75.73;;;16.50;;
1308;SDS011;647;48.840;9.314;2023-04-19T04:56:23;75.50;;;17.40;;
1308;SDS011;647;48.840;9.314;2023-04-19T04:58:51;73.97;;;15.90;;
1308;SDS011;647;48.840;9.314;2023-04-19T05:01:18;73.13;;;16.57;;
1308;SDS011;647;48.840;9.314;2023-04-19T05:03:46;77.60;;;17.10;;
1308;SDS011;647;48.840;9.314;2023-04-19T05:06:14;74.90;;;16.57;;
1308;SDS011;647;48.840;9.314;2023-04-19T05:08:41;73.73;;;17.00;;
1308;SDS011;647;48.840;9.314;2023-04-19T05:11:08;76.03;;;16.93;;
1308;SDS011;647;48.840;9.314;2023-04-19T05:13:35;77.00;;;17.30;;
1308;SDS011;647;48.840;9.314;2023-04-19T05:16:03;74.30;;;17.17;;
1308;SDS011;647;48.840;9.314;2023-04-19T05:18:30;73.43;;;16.33;;
1308;SDS011;647;48.840;9.314;2023-04-19T05:20:57;75.37;;;16.00;;
1308;SDS011;647;48.840;9.314;2023-04-19T05:23:25;77.30;;;17.10;;
1308;SDS011;647;48.840;9.314;2023-04-19T05:25:52;73.37;;;16.23;;
1308;SDS011;647;48.840;9.314;2023-04-19T05:28:19;72.67;;;15.57;;
1308;SDS011;647;48.840;9.314;2023-04-19T05:30:47;74.50;;;17.13;;
1308;SDS011;647;48.840;9.314;2023-04-19T05:33:14;71.80;;;15.07;;
1308;SDS011;647;48.840;9.314;2023-04-19T05:35:41;75.50;;;16.57;;
1308;SDS011;647;48.840;9.314;2023-04-19T05:38:08;76.70;;;17.30;;
1308;SDS011;647;48.840;9.314;2023-04-19T05:40:36;74.70;;;15.30;;
1308;SDS011;647;48.840;9.314;2023-04-19T05:43:04;74.87;;;15.90;;
1308;SDS011;647;48.840;9.314;2023-04-19T05:45:31;74.83;;;15.70;;
1308;SDS011;647;48.840;9.314;2023-04-19T05:47:58;78.90;;;16.40;;
1308;SDS011;647;48.840;9.314;2023-04-19T05:50:25;77.70;;;16.80;;
1308;SDS011;647;48.840;9.314;2023-04-19T05:52:52;72.63;;;15.60;;
1308;SDS011;647;48.840;9.314;2023-04-19T05:55:19;73.40;;;15.77;;
1308;SDS011;647;48.840;9.314;2023-04-19T05:57:48;71.27;;;14.83;;
1308;SDS011;647;48.840;9.314;2023-04-19T06:00:16;70.77;;;13.83;;
1308;SDS011;647;48.840;9.314;2023-04-19T06:02:43;73.07;;;15.30;;
1308;SDS011;647;48.840;9.314;2023-04-19T06:05:10;72.53;;;14.90;;
1308;SDS011;647;48.840;9.314;2023-04-19T06:07:37;70.90;;;14.33;;
1308;SDS011;647;48.840;9.314;2023-04-19T06:10:05;73.10;;;15.00;;
1308;SDS011;647;48.840;9.314;2023-04-19T06:12:32;72.77;;;15.33;;
1308;SDS011;647;48.840;9.314;2023-04-19T06:15:01;73.57;;;15.97;;
1308;SDS011;647;48.840;9.314;2023-04-19T06:17:28;74.50;;;15.10;;
1308;SDS011;647;48.840;9.314;2023-04-19T06:19:55;73.80;;;15.90;;
1308;SDS011;647;48.840;9.314;2023-04-19T06:22:22;72.30;;;14.10;;
1308;SDS011;647;48.840;9.314;2023-04-19T06:24:49;67.70;;;13.10;;
1308;SDS011;647;48.840;9.314;2023-04-19T06:27:17;70.80;;;14.63;;
1308;SDS011;647;48.840;9.314;2023-04-19T06:29:44;71.30;;;13.87;;
1308;SDS011;647;48.840;9.314;2023-04-19T06:32:12;72.80;;;12.33;;
1308;SDS011;647;48.840;9.314;2023-04-19T06:34:39;67.07;;;12.40;;
1308;SDS011;647;48.840;9.314;2023-04-19T06:37:07;70.53;;;14.87;;
1308;SDS011;647;48.840;9.314;2023-04-19T06:39:34;70.57;;;13.90;;
1308;SDS011;647;48.840;9.314;2023-04-19T06:42:01;69.50;;;13.03;;
1308;SDS011;647;48.840;9.314;2023-04-19T06:44:29;70.23;;;12.67;;
1308;SDS011;647;48.840;9.314;2023-04-19T06:46:56;68.20;;;13.07;;
1308;SDS011;647;48.840;9.314;2023-04-19T06:49:25;71.13;;;12.60;;
1308;SDS011;647;48.840;9.314;2023-04-19T06:51:52;69.27;;;12.37;;
1308;SDS011;647;48.840;9.314;2023-04-19T06:54:19;67.90;;;12.80;;
1308;SDS011;647;48.840;9.314;2023-04-19T06:56:46;70.10;;;14.70;;
1308;SDS011;647;48.840;9.314;2023-04-19T06:59:14;67.80;;;12.13;;
1308;SDS011;647;48.840;9.314;2023-04-19T07:01:42;66.97;;;11.93;;
1308;SDS011;647;48.840;9.314;2023-04-19T07:04:09;68.50;;;13.17;;
1308;SDS011;647;48.840;9.314;2023-04-19T07:06:38;67.40;;;12.30;;
1308;SDS011;647;48.840;9.314;2023-04-19T07:09:05;69.00;;;12.70;;
1308;SDS011;647;48.840;9.314;2023-04-19T07:11:33;69.87;;;12.87;;
1308;SDS011;647;48.840;9.314;2023-04-19T07:14:00;68.47;;;13.37;;
1308;SDS011;647;48.840;9.314;2023-04-19T07:16:27;68.97;;;13.37;;
1308;SDS011;647;48.840;9.314;2023-04-19T07:18:54;68.43;;;12.00;;
1308;SDS011;647;48.840;9.314;2023-04-19T07:21:21;69.50;;;12.10;;
1308;SDS011;647;48.840;9.314;2023-04-19T07:23:53;68.57;;;12.70;;
1308;SDS011;647;48.840;9.314;2023-04-19T07:26:21;65.07;;;10.67;;
1308;SDS011;647;48.840;9.314;2023-04-19T07:28:48;67.70;;;11.97;;
1308;SDS011;647;48.840;9.314;2023-04-19T07:31:15;67.30;;;11.53;;
1308;SDS011;647;48.840;9.314;2023-04-19T07:33:42;67.47;;;11.67;;
1308;SDS011;647;48.840;9.314;2023-04-19T07:36:10;67.63;;;11.40;;
1308;SDS011;647;48.840;9.314;2023-04-19T07:38:37;67.07;;;11.40;;
1308;SDS011;647;48.840;9.314;2023-04-19T07:41:05;66.37;;;11.87;;
1308;SDS011;647;48.840;9.314;2023-04-19T07:43:32;71.77;;;11.63;;
1308;SDS011;647;48.840;9.314;2023-04-19T07:46:00;66.07;;;11.23;;
1308;SDS011;647;48.840;9.314;2023-04-19T07:48:27;67.70;;;10.30;;
1308;SDS011;647;48.840;9.314;2023-04-19T07:50:54;65.47;;;9.30;;
1308;SDS011;647;48.840;9.314;2023-04-19T07:53:21;64.20;;;9.70;;
1308;SDS011;647;48.840;9.314;2023-04-19T07:55:48;65.93;;;10.40;;
1308;SDS011;647;48.840;9.314;2023-04-19T07:58:16;63.83;;;9.00;;
1308;SDS011;647;48.840;9.314;2023-04-19T08:00:44;67.80;;;10.70;;
1308;SDS011;647;48.840;9.314;2023-04-19T08:03:11;65.07;;;9.60;;
1308;SDS011;647;48.840;9.314;2023-04-19T08:05:38;63.37;;;9.40;;
1308;SDS011;647;48.840;9.314;2023-04-19T08:08:05;65.80;;;10.07;;
1308;SDS011;647;48.840;9.314;2023-04-19T08:10:32;67.40;;;10.50;;
1308;SDS011;647;48.840;9.314;2023-04-19T08:12:59;67.10;;;10.70;;
1308;SDS011;647;48.840;9.314;2023-04-19T08:15:28;64.90;;;10.77;;
1308;SDS011;647;48.840;9.314;2023-04-19T08:17:55;65.17;;;10.07;;
1308;SDS011;647;48.840;9.314;2023-04-19T08:20:22;65.87;;;9.90;;
1308;SDS011;647;48.840;9.314;2023-04-19T08:22:50;64.80;;;9.67;;
1308;SDS011;647;48.840;9.314;2023-04-19T08:25:18;63.70;;;9.87;;
1308;SDS011;647;48.840;9.314;2023-04-19T08:27:45;63.80;;;9.83;;
1308;SDS011;647;48.840;9.314;2023-04-19T08:30:12;64.40;;;9.33;;
1308;SDS011;647;48.840;9.314;2023-04-19T08:32:41;66.93;;;10.33;;
1308;SDS011;647;48.840;9.314;2023-04-19T08:35:08;65.10;;;10.40;;
1308;SDS011;647;48.840;9.314;2023-04-19T08:37:35;63.80;;;9.20;;
1308;SDS011;647;48.840;9.314;2023-04-19T08:40:03;64.73;;;10.30;;
1308;SDS011;647;48.840;9.314;2023-04-19T08:42:30;64.90;;;9.53;;
1308;SDS011;647;48.840;9.314;2023-04-19T08:44:58;64.73;;;9.87;;
1308;SDS011;647;48.840;9.314;2023-04-19T08:47:27;64.80;;;9.93;;
1308;SDS011;647;48.840;9.314;2023-04-19T08:49:55;62.77;;;9.10;;
1308;SDS011;647;48.840;9.314;2023-04-19T08:52:23;65.77;;;9.70;;
1308;SDS011;647;48.840;9.314;2023-04-19T08:54:50;63.57;;;9.07;;
1308;SDS011;647;48.840;9.314;2023-04-19T08:57:18;64.80;;;9.70;;
1308;SDS011;647;48.840;9.314;2023-04-19T08:59:45;63.67;;;9.40;;
1308;SDS011;647;48.840;9.314;2023-04-19T09:02:15;64.70;;;9.90;;
1308;SDS011;647;48.840;9.314;2023-04-19T09:04:43;64.50;;;9.70;;
1308;SDS011;647;48.840;9.314;2023-04-19T09:07:22;67.03;;;9.83;;
1308;SDS011;647;48.840;9.314;2023-04-19T09:10:02;64.00;;;9.40;;
1308;SDS011;647;48.840;9.314;2023-04-19T09:12:30;63.83;;;9.60;;
1308;SDS011;647;48.840;9.314;2023-04-19T09:14:59;65.37;;;10.20;;
1308;SDS011;647;48.840;9.314;2023-04-19T09:17:26;67.63;;;9.57;;
1308;SDS011;647;48.840;9.314;2023-04-19T09:19:53;65.27;;;10.90;;
1308;SDS011;647;48.840;9.314;2023-04-19T09:22:20;64.13;;;10.20;;
1308;SDS011;647;48.840;9.314;2023-04-19T09:24:49;65.93;;;10.63;;
1308;SDS011;647;48.840;9.314;2023-04-19T09:27:23;66.93;;;10.67;;
1308;SDS011;647;48.840;9.314;2023-04-19T09:29:51;65.20;;;10.40;;
1308;SDS011;647;48.840;9.314;2023-04-19T09:32:19;63.17;;;8.77;;
1308;SDS011;647;48.840;9.314;2023-04-19T09:34:50;65.97;;;10.53;;
1308;SDS011;647;48.840;9.314;2023-04-19T09:37:17;65.00;;;10.27;;
1308;SDS011;647;48.840;9.314;2023-04-19T09:39:45;63.40;;;9.83;;
1308;SDS011;647;48.840;9.314;2023-04-19T09:42:13;65.00;;;9.30;;
1308;SDS011;647;48.840;9.314;2023-04-19T09:44:41;65.87;;;9.73;;
1308;SDS011;647;48.840;9.314;2023-04-19T09:50:06;63.40;;;9.23;;
1308;SDS011;647;48.840;9.314;2023-04-19T09:52:33;63.00;;;8.70;;
1308;SDS011;647;48.840;9.314;2023-04-19T09:55:01;63.97;;;9.67;;
1308;SDS011;647;48.840;9.314;2023-04-19T09:57:30;64.10;;;9.60;;
1308;SDS011;647;48.840;9.314;2023-04-19T09:59:58;63.40;;;9.23;;
1308;SDS011;647;48.840;9.314;2023-04-19T10:02:26;65.70;;;9.10;;
1308;SDS011;647;48.840;9.314;2023-04-19T10:04:56;63.80;;;9.27;;
1308;SDS011;647;48.840;9.314;2023-04-19T10:07:23;64.40;;;9.50;;
1308;SDS011;647;48.840;9.314;2023-04-19T10:09:51;63.97;;;9.27;;
1308;SDS011;647;48.840;9.314;2023-04-19T10:12:20;64.10;;;9.07;;
1308;SDS011;647;48.840;9.314;2023-04-19T10:14:51;65.23;;;9.43;;
1308;SDS011;647;48.840;9.314;2023-04-19T10:17:18;67.97;;;10.73;;
1308;SDS011;647;48.840;9.314;2023-04-19T10:19:45;64.53;;;9.83;;
1308;SDS011;647;48.840;9.314;2023-04-19T10:22:13;68.00;;;9.93;;
1308;SDS011;647;48.840;9.314;2023-04-19T10:24:41;65.47;;;9.30;;
1308;SDS011;647;48.840;9.314;2023-04-19T10:27:27;63.97;;;10.07;;
1308;SDS011;647;48.840;9.314;2023-04-19T10:29:57;65.00;;;9.97;;
1308;SDS011;647;48.840;9.314;2023-04-19T10:32:25;65.33;;;10.50;;
1308;SDS011;647;48.840;9.314;2023-04-19T10:34:53;65.53;;;10.40;;
1308;SDS011;647;48.840;9.314;2023-04-19T10:37:20;63.53;;;9.50;;
1308;SDS011;647;48.840;9.314;2023-04-19T10:39:49;64.57;;;9.73;;
1308;SDS011;647;48.840;9.314;2023-04-19T10:42:16;63.97;;;9.60;;
1308;SDS011;647;48.840;9.314;2023-04-19T10:50:09;65.43;;;10.60;;
1308;SDS011;647;48.840;9.314;2023-04-19T10:52:36;65.30;;;10.10;;
1308;SDS011;647;48.840;9.314;2023-04-19T10:55:03;65.00;;;10.83;;
1308;SDS011;647;48.840;9.314;2023-04-19T11:00:17;65.10;;;11.10;;
1308;SDS011;647;48.840;9.314;2023-04-19T11:02:44;64.97;;;10.80;;
1308;SDS011;647;48.840;9.314;2023-04-19T11:05:13;66.20;;;11.33;;
1308;SDS011;647;48.840;9.314;2023-04-19T11:07:40;65.00;;;10.33;;
1308;SDS011;647;48.840;9.314;2023-04-19T11:10:08;67.10;;;9.43;;
1308;SDS011;647;48.840;9.314;2023-04-19T11:12:36;65.73;;;11.20;;
1308;SDS011;647;48.840;9.314;2023-04-19T11:15:04;66.93;;;10.70;;
1308;SDS011;647;48.840;9.314;2023-04-19T11:17:33;64.77;;;10.10;;
1308;SDS011;647;48.840;9.314;2023-04-19T11:20:03;64.53;;;10.40;;
1308;SDS011;647;48.840;9.314;2023-04-19T11:22:32;67.07;;;11.00;;
1308;SDS011;647;48.840;9.314;2023-04-19T11:25:06;64.53;;;10.17;;
1308;SDS011;647;48.840;9.314;2023-04-19T11:27:34;68.87;;;11.17;;
1308;SDS011;647;48.840;9.314;2023-04-19T11:30:02;65.03;;;10.87;;
1308;SDS011;647;48.840;9.314;2023-04-19T11:32:30;67.20;;;11.47;;
1308;SDS011;647;48.840;9.314;2023-04-19T11:34:57;67.60;;;12.23;;
1308;SDS011;647;48.840;9.314;2023-04-19T11:37:32;69.80;;;13.80;;
1308;SDS011;647;48.840;9.314;2023-04-19T11:40:00;69.07;;;13.13;;
1308;SDS011;647;48.840;9.314;2023-04-19T11:42:27;72.50;;;13.63;;
1308;SDS011;647;48.840;9.314;2023-04-19T11:44:55;69.47;;;14.20;;
1308;SDS011;647;48.840;9.314;2023-04-19T11:47:23;69.37;;;13.53;;
1308;SDS011;647;48.840;9.314;2023-04-19T11:49:53;71.07;;;14.60;;
1308;SDS011;647;48.840;9.314;2023-04-19T11:52:20;70.90;;;15.23;;
1308;SDS011;647;48.840;9.314;2023-04-19T11:54:50;70.67;;;15.67;;
1308;SDS011;647;48.840;9.314;2023-04-19T11:57:25;78.10;;;15.80;;
1308;SDS011;647;48.840;9.314;2023-04-19T12:00:03;74.27;;;16.67;;
1308;SDS011;647;48.840;9.314;2023-04-19T12:02:35;75.23;;;16.57;;
1308;SDS011;647;48.840;9.314;2023-04-19T12:05:06;70.47;;;15.43;;
1308;SDS011;647;48.840;9.314;2023-04-19T12:07:34;74.13;;;17.70;;
1308;SDS011;647;48.840;9.314;2023-04-19T12:10:08;73.13;;;16.23;;
1308;SDS011;647;48.840;9.314;2023-04-19T12:12:36;75.70;;;17.07;;
1308;SDS011;647;48.840;9.314;2023-04-19T12:15:03;77.57;;;17.37;;
1308;SDS011;647;48.840;9.314;2023-04-19T12:17:30;73.50;;;17.90;;
1308;SDS011;647;48.840;9.314;2023-04-19T12:19:57;74.87;;;18.50;;
1308;SDS011;647;48.840;9.314;2023-04-19T12:22:25;72.20;;;16.07;;
1308;SDS011;647;48.840;9.314;2023-04-19T12:24:52;76.87;;;17.30;;
1308;SDS011;647;48.840;9.314;2023-04-19T12:27:21;73.27;;;16.37;;
1308;SDS011;647;48.840;9.314;2023-04-19T12:29:49;77.47;;;18.00;;
1308;SDS011;647;48.840;9.314;2023-04-19T12:32:16;73.00;;;17.50;;
1308;SDS011;647;48.840;9.314;2023-04-19T12:34:43;73.37;;;16.23;;
1308;SDS011;647;48.840;9.314;2023-04-19T12:37:11;77.27;;;17.20;;
1308;SDS011;647;48.840;9.314;2023-04-19T12:39:38;75.57;;;16.43;;
1308;SDS011;647;48.840;9.314;2023-04-19T12:42:05;77.50;;;17.97;;
1308;SDS011;647;48.840;9.314;2023-04-19T12:44:34;74.13;;;16.90;;
1308;SDS011;647;48.840;9.314;2023-04-19T12:47:01;77.27;;;18.20;;
1308;SDS011;647;48.840;9.314;2023-04-19T12:49:28;75.80;;;15.97;;
1308;SDS011;647;48.840;9.314;2023-04-19T12:51:55;72.80;;;15.70;;
1308;SDS011;647;48.840;9.314;2023-04-19T12:54:22;73.00;;;14.63;;
1308;SDS011;647;48.840;9.314;2023-04-19T12:56:49;71.90;;;13.50;;
1308;SDS011;647;48.840;9.314;2023-04-19T12:59:16;70.10;;;14.20;;
1308;SDS011;647;48.840;9.314;2023-04-19T13:01:45;69.17;;;13.20;;
1308;SDS011;647;48.840;9.314;2023-04-19T13:04:12;73.40;;;13.30;;
1308;SDS011;647;48.840;9.314;2023-04-19T13:06:39;70.67;;;13.27;;
1308;SDS011;647;48.840;9.314;2023-04-19T13:09:06;72.60;;;13.00;;
1308;SDS011;647;48.840;9.314;2023-04-19T13:11:33;67.57;;;12.40;;
1308;SDS011;647;48.840;9.314;2023-04-19T13:14:00;66.50;;;11.50;;
1308;SDS011;647;48.840;9.314;2023-04-19T13:16:27;69.83;;;11.47;;
1308;SDS011;647;48.840;9.314;2023-04-19T13:18:56;68.97;;;10.50;;
1308;SDS011;647;48.840;9.314;2023-04-19T13:21:23;70.43;;;10.83;;
1308;SDS011;647;48.840;9.314;2023-04-19T13:23:51;69.50;;;11.90;;
1308;SDS011;647;48.840;9.314;2023-04-19T13:26:19;66.47;;;10.97;;
1308;SDS011;647;48.840;9.314;2023-04-19T13:28:46;68.03;;;10.77;;
1308;SDS011;647;48.840;9.314;2023-04-19T13:31:13;65.63;;;10.30;;
1308;SDS011;647;48.840;9.314;2023-04-19T13:33:40;68.47;;;10.80;;
1308;SDS011;647;48.840;9.314;2023-04-19T13:36:08;66.20;;;10.70;;
1308;SDS011;647;48.840;9.314;2023-04-19T13:38:35;65.67;;;10.73;;
1308;SDS011;647;48.840;9.314;2023-04-19T13:41:03;65.20;;;9.27;;
1308;SDS011;647;48.840;9.314;2023-04-19T13:43:30;67.80;;;10.33;;
1308;SDS011;647;48.840;9.314;2023-04-19T13:45:57;66.27;;;10.90;;
1308;SDS011;647;48.840;9.314;2023-04-19T13:48:24;64.67;;;10.33;;
1308;SDS011;647;48.840;9.314;2023-04-19T13:50:53;65.97;;;10.67;;
1308;SDS011;647;48.840;9.314;2023-04-19T13:53:21;67.50;;;9.93;;
1308;SDS011;647;48.840;9.314;2023-04-19T13:55:49;69.20;;;10.43;;
1308;SDS011;647;48.840;9.314;2023-04-19T13:58:16;64.67;;;10.03;;
1308;SDS011;647;48.840;9.314;2023-04-19T14:00:43;65.67;;;11.13;;
1308;SDS011;647;48.840;9.314;2023-04-19T14:03:12;63.17;;;8.83;;
1308;SDS011;647;48.840;9.314;2023-04-19T14:05:39;65.07;;;10.10;;
1308;SDS011;647;48.840;9.314;2023-04-19T14:08:06;67.27;;;10.00;;
1308;SDS011;647;48.840;9.314;2023-04-19T14:10:34;67.00;;;10.60;;
1308;SDS011;647;48.840;9.314;2023-04-19T14:13:02;64.43;;;10.30;;
1308;SDS011;647;48.840;9.314;2023-04-19T14:15:29;66.03;;;10.73;;
1308;SDS011;647;48.840;9.314;2023-04-19T14:17:56;65.77;;;9.80;;
1308;SDS011;647;48.840;9.314;2023-04-19T14:20:23;63.70;;;9.73;;
1308;SDS011;647;48.840;9.314;2023-04-19T14:22:51;66.30;;;9.60;;
1308;SDS011;647;48.840;9.314;2023-04-19T14:25:19;63.53;;;9.20;;
1308;SDS011;647;48.840;9.314;2023-04-19T14:27:47;64.10;;;10.03;;
1308;SDS011;647;48.840;9.314;2023-04-19T14:30:14;65.97;;;10.73;;
1308;SDS011;647;48.840;9.314;2023-04-19T14:32:41;63.70;;;9.93;;
1308;SDS011;647;48.840;9.314;2023-04-19T14:35:09;63.70;;;9.30;;
1308;SDS011;647;48.840;9.314;2023-04-19T14:37:36;65.27;;;9.93;;
1308;SDS011;647;48.840;9.314;2023-04-19T14:40:04;65.00;;;10.33;;
1308;SDS011;647;48.840;9.314;2023-04-19T14:42:31;65.10;;;9.83;;
1308;SDS011;647;48.840;9.314;2023-04-19T14:44:59;63.10;;;8.67;;
1308;SDS011;647;48.840;9.314;2023-04-19T14:47:26;66.50;;;9.80;;
1308;SDS011;647;48.840;9.314;2023-04-19T14:49:54;65.30;;;9.40;;
1308;SDS011;647;48.840;9.314;2023-04-19T14:52:21;65.20;;;10.73;;
1308;SDS011;647;48.840;9.314;2023-04-19T14:54:49;65.80;;;9.17;;
1308;SDS011;647;48.840;9.314;2023-04-19T14:57:17;64.97;;;10.30;;
1308;SDS011;647;48.840;9.314;2023-04-19T14:59:44;65.43;;;9.40;;
1308;SDS011;647;48.840;9.314;2023-04-19T15:02:12;63.77;;;10.10;;
1308;SDS011;647;48.840;9.314;2023-04-19T15:04:39;64.53;;;10.73;;
1308;SDS011;647;48.840;9.314;2023-04-19T15:07:07;65.13;;;10.10;;
1308;SDS011;647;48.840;9.314;2023-04-19T15:09:34;68.70;;;9.80;;
1308;SDS011;647;48.840;9.314;2023-04-19T15:12:01;64.90;;;9.70;;
1308;SDS011;647;48.840;9.314;2023-04-19T15:14:28;64.70;;;8.90;;
1308;SDS011;647;48.840;9.314;2023-04-19T15:16:55;62.57;;;9.00;;
1308;SDS011;647;48.840;9.314;2023-04-19T15:19:23;65.00;;;10.20;;